sensor_id;sensor_type;location;lat;lon;timestamp;temperature;humidity
54082;DHT22;39986;50.770;0.266;2023-04-25T00:02:11;8.20;99.90
54082;DHT22;39986;50.770;0.266;2023-04-25T00:04:37;8.10;99.90
54082;DHT22;39986;50.770;0.266;2023-04-25T00:07:03;8.10;99.90
54082;DHT22;39986;50.770;0.266;2023-04-25T00:09:29;8.20;99.90
54082;DHT22;39986;50.770;0.266;2023-04-25T00:11:55;8.20;99.90
54082;DHT22;39986;50.770;0.266;2023-04-25T00:14:20;8.10;99.90
54082;DHT22;39986;50.770;0.266;2023-04-25T00:16:46;8.10;99.90
54082;DHT22;39986;50.770;0.266;2023-04-25T00:19:11;8.20;99.90
54082;DHT22;39986;50.770;0.266;2023-04-25T00:21:38;8.20;99.90
54082;DHT22;39986;50.770;0.266;2023-04-25T00:24:08;8.20;99.90
54082;DHT22;39986;50.770;0.266;2023-04-25T00:26:34;8.20;99.90
54082;DHT22;39986;50.770;0.266;2023-04-25T00:29:00;8.20;99.90
54082;DHT22;39986;50.770;0.266;2023-04-25T00:31:26;8.20;99.90
54082;DHT22;39986;50.770;0.266;2023-04-25T00:33:51;8.20;99.90
54082;DHT22;39986;50.770;0.266;2023-04-25T00:36:18;8.20;99.90
54082;DHT22;39986;50.770;0.266;2023-04-25T00:38:43;8.20;99.90
54082;DHT22;39986;50.770;0.266;2023-04-25T00:41:09;8.20;99.90
54082;DHT22;39986;50.770;0.266;2023-04-25T00:43:36;8.20;99.90
54082;DHT22;39986;50.770;0.266;2023-04-25T00:46:01;8.20;99.90
54082;DHT22;39986;50.770;0.266;2023-04-25T00:48:27;8.20;99.90
54082;DHT22;39986;50.770;0.266;2023-04-25T00:50:53;8.10;99.90
54082;DHT22;39986;50.770;0.266;2023-04-25T00:53:19;8.10;99.90
54082;DHT22;39986;50.770;0.266;2023-04-25T00:55:45;8.10;99.90
54082;DHT22;39986;50.770;0.266;2023-04-25T00:58:11;8.10;99.90
54082;DHT22;39986;50.770;0.266;2023-04-25T01:00:36;8.30;99.90
54082;DHT22;39986;50.770;0.266;2023-04-25T01:03:02;8.00;99.90
54082;DHT22;39986;50.770;0.266;2023-04-25T01:05:29;8.00;99.90
54082;DHT22;39986;50.770;0.266;2023-04-25T01:07:54;7.90;99.90
54082;DHT22;39986;50.770;0.266;2023-04-25T01:10:20;8.10;99.90
54082;DHT22;39986;50.770;0.266;2023-04-25T01:12:46;8.00;99.90
54082;DHT22;39986;50.770;0.266;2023-04-25T01:15:11;7.90;99.90
54082;DHT22;39986;50.770;0.266;2023-04-25T01:17:37;7.90;99.90
54082;DHT22;39986;50.770;0.266;2023-04-25T01:20:03;7.90;99.90
54082;DHT22;39986;50.770;0.266;2023-04-25T01:22:29;7.90;99.90
54082;DHT22;39986;50.770;0.266;2023-04-25T01:24:55;7.90;99.90
54082;DHT22;39986;50.770;0.266;2023-04-25T01:27:21;7.90;99.90
54082;DHT22;39986;50.770;0.266;2023-04-25T01:29:48;7.90;99.90
54082;DHT22;39986;50.770;0.266;2023-04-25T01:32:14;7.80;99.90
54082;DHT22;39986;50.770;0.266;2023-04-25T01:34:40;7.80;99.90
54082;DHT22;39986;50.770;0.266;2023-04-25T01:37:06;7.80;99.90
54082;DHT22;39986;50.770;0.266;2023-04-25T01:39:31;7.80;99.90
54082;DHT22;39986;50.770;0.266;2023-04-25T01:41:58;7.80;99.90
54082;DHT22;39986;50.770;0.266;2023-04-25T01:44:24;7.70;99.90
54082;DHT22;39986;50.770;0.266;2023-04-25T01:46:49;7.70;99.90
54082;DHT22;39986;50.770;0.266;2023-04-25T01:49:15;7.80;99.90
54082;DHT22;39986;50.770;0.266;2023-04-25T01:51:40;7.70;99.90
54082;DHT22;39986;50.770;0.266;2023-04-25T01:54:07;7.70;99.90
54082;DHT22;39986;50.770;0.266;2023-04-25T01:56:32;7.70;99.90
54082;DHT22;39986;50.770;0.266;2023-04-25T01:58:58;7.60;99.90
54082;DHT22;39986;50.770;0.266;2023-04-25T02:01:24;7.70;99.90
54082;DHT22;39986;50.770;0.266;2023-04-25T02:03:49;7.60;99.90
54082;DHT22;39986;50.770;0.266;2023-04-25T02:06:15;7.60;99.90
54082;DHT22;39986;50.770;0.266;2023-04-25T02:08:40;7.70;99.90
54082;DHT22;39986;50.770;0.266;2023-04-25T02:11:06;7.60;99.90
54082;DHT22;39986;50.770;0.266;2023-04-25T02:13:31;7.60;99.90
54082;DHT22;39986;50.770;0.266;2023-04-25T02:15:57;7.50;99.90
54082;DHT22;39986;50.770;0.266;2023-04-25T02:18:23;7.40;99.90
54082;DHT22;39986;50.770;0.266;2023-04-25T02:20:48;7.40;99.90
54082;DHT22;39986;50.770;0.266;2023-04-25T02:23:14;7.40;99.90
54082;DHT22;39986;50.770;0.266;2023-04-25T02:25:40;7.40;99.90
54082;DHT22;39986;50.770;0.266;2023-04-25T02:28:06;7.50;99.90
54082;DHT22;39986;50.770;0.266;2023-04-25T02:30:31;7.50;99.90
54082;DHT22;39986;50.770;0.266;2023-04-25T02:32:57;7.50;99.90
54082;DHT22;39986;50.770;0.266;2023-04-25T02:35:23;7.50;99.90
54082;DHT22;39986;50.770;0.266;2023-04-25T02:37:48;7.50;99.90
54082;DHT22;39986;50.770;0.266;2023-04-25T02:40:14;7.50;99.90
54082;DHT22;39986;50.770;0.266;2023-04-25T02:42:39;7.50;99.90
54082;DHT22;39986;50.770;0.266;2023-04-25T02:45:05;7.50;99.90
54082;DHT22;39986;50.770;0.266;2023-04-25T02:47:31;7.40;99.90
54082;DHT22;39986;50.770;0.266;2023-04-25T02:49:56;7.50;99.90
54082;DHT22;39986;50.770;0.266;2023-04-25T02:52:22;7.40;99.90
54082;DHT22;39986;50.770;0.266;2023-04-25T02:54:47;7.40;99.90
54082;DHT22;39986;50.770;0.266;2023-04-25T02:57:13;7.40;99.90
54082;DHT22;39986;50.770;0.266;2023-04-25T02:59:38;7.40;99.90
54082;DHT22;39986;50.770;0.266;2023-04-25T03:02:03;7.30;99.90
54082;DHT22;39986;50.770;0.266;2023-04-25T03:04:29;7.20;99.90
54082;DHT22;39986;50.770;0.266;2023-04-25T03:06:55;7.20;99.90
54082;DHT22;39986;50.770;0.266;2023-04-25T03:09:21;7.10;99.90
54082;DHT22;39986;50.770;0.266;2023-04-25T03:11:46;7.00;99.90
54082;DHT22;39986;50.770;0.266;2023-04-25T03:14:12;7.00;99.90
54082;DHT22;39986;50.770;0.266;2023-04-25T03:16:38;6.90;99.90
54082;DHT22;39986;50.770;0.266;2023-04-25T03:19:03;6.80;99.90
54082;DHT22;39986;50.770;0.266;2023-04-25T03:21:29;6.80;99.90
54082;DHT22;39986;50.770;0.266;2023-04-25T03:23:57;6.80;99.90
54082;DHT22;39986;50.770;0.266;2023-04-25T03:26:22;6.70;99.90
54082;DHT22;39986;50.770;0.266;2023-04-25T03:28:48;6.60;99.90
54082;DHT22;39986;50.770;0.266;2023-04-25T03:31:13;6.50;99.90
54082;DHT22;39986;50.770;0.266;2023-04-25T03:33:39;6.50;99.90
54082;DHT22;39986;50.770;0.266;2023-04-25T03:36:04;6.40;99.90
54082;DHT22;39986;50.770;0.266;2023-04-25T03:38:30;6.40;99.90
54082;DHT22;39986;50.770;0.266;2023-04-25T03:40:56;6.40;99.90
54082;DHT22;39986;50.770;0.266;2023-04-25T03:43:22;6.30;99.90
54082;DHT22;39986;50.770;0.266;2023-04-25T03:45:47;6.30;99.90
54082;DHT22;39986;50.770;0.266;2023-04-25T03:48:12;6.20;99.90
54082;DHT22;39986;50.770;0.266;2023-04-25T03:50:38;6.10;99.90
54082;DHT22;39986;50.770;0.266;2023-04-25T03:53:03;6.00;99.90
54082;DHT22;39986;50.770;0.266;2023-04-25T03:55:29;6.00;99.90
54082;DHT22;39986;50.770;0.266;2023-04-25T03:57:55;6.00;99.90
54082;DHT22;39986;50.770;0.266;2023-04-25T04:00:20;5.90;99.90
54082;DHT22;39986;50.770;0.266;2023-04-25T04:02:46;5.90;99.90
54082;DHT22;39986;50.770;0.266;2023-04-25T04:05:11;5.90;99.90
54082;DHT22;39986;50.770;0.266;2023-04-25T04:07:37;5.70;99.90
54082;DHT22;39986;50.770;0.266;2023-04-25T04:10:06;5.80;99.90
54082;DHT22;39986;50.770;0.266;2023-04-25T04:12:32;5.70;99.90
54082;DHT22;39986;50.770;0.266;2023-04-25T04:14:57;5.70;99.90
54082;DHT22;39986;50.770;0.266;2023-04-25T04:17:23;5.60;99.90
54082;DHT22;39986;50.770;0.266;2023-04-25T04:19:48;5.60;99.90
54082;DHT22;39986;50.770;0.266;2023-04-25T04:22:14;5.60;99.90
54082;DHT22;39986;50.770;0.266;2023-04-25T04:24:40;5.50;99.90
54082;DHT22;39986;50.770;0.266;2023-04-25T04:27:09;5.50;99.90
54082;DHT22;39986;50.770;0.266;2023-04-25T04:29:34;5.40;99.90
54082;DHT22;39986;50.770;0.266;2023-04-25T04:32:01;5.40;99.90
54082;DHT22;39986;50.770;0.266;2023-04-25T04:34:27;5.30;99.90
54082;DHT22;39986;50.770;0.266;2023-04-25T04:36:53;5.40;99.90
54082;DHT22;39986;50.770;0.266;2023-04-25T04:39:18;5.30;99.90
54082;DHT22;39986;50.770;0.266;2023-04-25T04:41:44;5.40;99.90
54082;DHT22;39986;50.770;0.266;2023-04-25T04:44:09;5.30;99.90
54082;DHT22;39986;50.770;0.266;2023-04-25T04:46:36;5.30;99.90
54082;DHT22;39986;50.770;0.266;2023-04-25T04:49:10;5.20;99.90
54082;DHT22;39986;50.770;0.266;2023-04-25T04:51:36;5.20;99.90
54082;DHT22;39986;50.770;0.266;2023-04-25T04:54:02;5.10;99.90
54082;DHT22;39986;50.770;0.266;2023-04-25T04:56:28;5.10;99.90
54082;DHT22;39986;50.770;0.266;2023-04-25T04:58:56;5.10;99.90
54082;DHT22;39986;50.770;0.266;2023-04-25T05:01:22;5.10;99.90
54082;DHT22;39986;50.770;0.266;2023-04-25T05:03:47;5.10;99.90
54082;DHT22;39986;50.770;0.266;2023-04-25T05:06:13;5.10;99.90
54082;DHT22;39986;50.770;0.266;2023-04-25T05:08:38;5.10;99.90
54082;DHT22;39986;50.770;0.266;2023-04-25T05:11:04;5.10;99.90
54082;DHT22;39986;50.770;0.266;2023-04-25T05:13:29;5.20;99.90
54082;DHT22;39986;50.770;0.266;2023-04-25T05:15:55;5.20;99.90
54082;DHT22;39986;50.770;0.266;2023-04-25T05:18:21;5.20;99.90
54082;DHT22;39986;50.770;0.266;2023-04-25T05:20:46;5.30;99.90
54082;DHT22;39986;50.770;0.266;2023-04-25T05:23:12;5.40;99.90
54082;DHT22;39986;50.770;0.266;2023-04-25T05:25:37;5.80;99.90
54082;DHT22;39986;50.770;0.266;2023-04-25T05:28:03;6.40;99.90
54082;DHT22;39986;50.770;0.266;2023-04-25T05:30:28;6.90;99.90
54082;DHT22;39986;50.770;0.266;2023-04-25T05:32:54;7.30;99.90
54082;DHT22;39986;50.770;0.266;2023-04-25T05:35:19;7.70;99.90
54082;DHT22;39986;50.770;0.266;2023-04-25T05:37:45;8.20;99.90
54082;DHT22;39986;50.770;0.266;2023-04-25T05:40:11;9.10;99.90
54082;DHT22;39986;50.770;0.266;2023-04-25T05:42:36;9.50;99.90
54082;DHT22;39986;50.770;0.266;2023-04-25T05:45:02;9.40;99.90
54082;DHT22;39986;50.770;0.266;2023-04-25T05:47:27;9.50;99.90
54082;DHT22;39986;50.770;0.266;2023-04-25T05:49:53;9.90;99.90
54082;DHT22;39986;50.770;0.266;2023-04-25T05:52:18;10.40;99.90
54082;DHT22;39986;50.770;0.266;2023-04-25T05:54:44;10.90;99.90
54082;DHT22;39986;50.770;0.266;2023-04-25T05:57:18;10.70;99.90
54082;DHT22;39986;50.770;0.266;2023-04-25T05:59:43;10.10;99.90
54082;DHT22;39986;50.770;0.266;2023-04-25T06:02:09;9.50;99.90
54082;DHT22;39986;50.770;0.266;2023-04-25T06:04:34;8.90;99.90
54082;DHT22;39986;50.770;0.266;2023-04-25T06:07:00;8.50;99.90
54082;DHT22;39986;50.770;0.266;2023-04-25T06:09:25;8.20;99.90
54082;DHT22;39986;50.770;0.266;2023-04-25T06:11:51;7.90;99.90
54082;DHT22;39986;50.770;0.266;2023-04-25T06:14:16;7.60;99.90
54082;DHT22;39986;50.770;0.266;2023-04-25T06:16:42;7.60;99.90
54082;DHT22;39986;50.770;0.266;2023-04-25T06:19:07;7.30;99.90
54082;DHT22;39986;50.770;0.266;2023-04-25T06:21:33;7.20;99.90
54082;DHT22;39986;50.770;0.266;2023-04-25T06:23:58;7.10;99.90
54082;DHT22;39986;50.770;0.266;2023-04-25T06:26:24;7.10;99.90
54082;DHT22;39986;50.770;0.266;2023-04-25T06:28:50;7.10;99.90
54082;DHT22;39986;50.770;0.266;2023-04-25T06:31:15;7.20;99.90
54082;DHT22;39986;50.770;0.266;2023-04-25T06:33:41;7.30;99.90
54082;DHT22;39986;50.770;0.266;2023-04-25T06:36:06;7.30;99.90
54082;DHT22;39986;50.770;0.266;2023-04-25T06:38:32;7.40;99.90
54082;DHT22;39986;50.770;0.266;2023-04-25T06:40:57;7.40;99.90
54082;DHT22;39986;50.770;0.266;2023-04-25T06:43:23;7.40;99.90
54082;DHT22;39986;50.770;0.266;2023-04-25T06:45:49;7.50;99.90
54082;DHT22;39986;50.770;0.266;2023-04-25T06:48:14;7.70;99.90
54082;DHT22;39986;50.770;0.266;2023-04-25T06:50:40;7.80;99.90
54082;DHT22;39986;50.770;0.266;2023-04-25T06:53:06;7.80;99.90
54082;DHT22;39986;50.770;0.266;2023-04-25T06:55:33;7.90;99.90
54082;DHT22;39986;50.770;0.266;2023-04-25T06:58:00;8.00;99.90
54082;DHT22;39986;50.770;0.266;2023-04-25T07:00:25;8.10;99.90
54082;DHT22;39986;50.770;0.266;2023-04-25T07:02:51;8.10;99.90
54082;DHT22;39986;50.770;0.266;2023-04-25T07:05:17;8.10;99.90
54082;DHT22;39986;50.770;0.266;2023-04-25T07:07:42;8.30;99.90
54082;DHT22;39986;50.770;0.266;2023-04-25T07:10:08;8.40;99.90
54082;DHT22;39986;50.770;0.266;2023-04-25T07:12:33;8.50;99.90
54082;DHT22;39986;50.770;0.266;2023-04-25T07:14:59;8.60;99.90
54082;DHT22;39986;50.770;0.266;2023-04-25T07:17:25;8.70;99.90
54082;DHT22;39986;50.770;0.266;2023-04-25T07:19:50;8.70;99.90
54082;DHT22;39986;50.770;0.266;2023-04-25T07:22:16;8.80;99.90
54082;DHT22;39986;50.770;0.266;2023-04-25T07:24:42;8.80;99.90
54082;DHT22;39986;50.770;0.266;2023-04-25T07:27:08;8.90;99.90
54082;DHT22;39986;50.770;0.266;2023-04-25T07:29:33;8.90;99.90
54082;DHT22;39986;50.770;0.266;2023-04-25T07:32:02;9.00;99.90
54082;DHT22;39986;50.770;0.266;2023-04-25T07:34:27;9.20;99.90
54082;DHT22;39986;50.770;0.266;2023-04-25T07:36:53;9.20;99.90
54082;DHT22;39986;50.770;0.266;2023-04-25T07:39:19;9.30;99.90
54082;DHT22;39986;50.770;0.266;2023-04-25T07:41:45;9.50;99.90
54082;DHT22;39986;50.770;0.266;2023-04-25T07:44:10;9.60;99.90
54082;DHT22;39986;50.770;0.266;2023-04-25T07:46:36;9.60;99.90
54082;DHT22;39986;50.770;0.266;2023-04-25T07:49:01;9.70;99.90
54082;DHT22;39986;50.770;0.266;2023-04-25T07:51:27;9.70;99.90
54082;DHT22;39986;50.770;0.266;2023-04-25T07:53:53;9.80;99.90
54082;DHT22;39986;50.770;0.266;2023-04-25T07:56:18;9.80;99.90
54082;DHT22;39986;50.770;0.266;2023-04-25T07:58:44;9.80;99.90
54082;DHT22;39986;50.770;0.266;2023-04-25T08:01:09;9.90;99.90
54082;DHT22;39986;50.770;0.266;2023-04-25T08:03:35;10.00;99.90
54082;DHT22;39986;50.770;0.266;2023-04-25T08:06:00;10.00;99.90
54082;DHT22;39986;50.770;0.266;2023-04-25T08:08:26;10.00;99.90
54082;DHT22;39986;50.770;0.266;2023-04-25T08:10:51;10.00;99.90
54082;DHT22;39986;50.770;0.266;2023-04-25T08:13:17;10.10;99.90
54082;DHT22;39986;50.770;0.266;2023-04-25T08:15:42;10.30;99.90
54082;DHT22;39986;50.770;0.266;2023-04-25T08:18:08;10.20;99.90
54082;DHT22;39986;50.770;0.266;2023-04-25T08:20:33;10.30;99.90
54082;DHT22;39986;50.770;0.266;2023-04-25T08:22:59;10.80;99.90
54082;DHT22;39986;50.770;0.266;2023-04-25T08:25:25;10.80;99.90
54082;DHT22;39986;50.770;0.266;2023-04-25T08:27:50;11.00;99.90
54082;DHT22;39986;50.770;0.266;2023-04-25T08:30:16;11.00;99.90
54082;DHT22;39986;50.770;0.266;2023-04-25T08:32:41;11.20;99.90
54082;DHT22;39986;50.770;0.266;2023-04-25T08:35:07;11.30;99.90
54082;DHT22;39986;50.770;0.266;2023-04-25T08:37:32;11.40;99.90
54082;DHT22;39986;50.770;0.266;2023-04-25T08:39:58;11.40;99.90
54082;DHT22;39986;50.770;0.266;2023-04-25T08:42:23;11.50;99.90
54082;DHT22;39986;50.770;0.266;2023-04-25T08:44:49;11.50;99.90
54082;DHT22;39986;50.770;0.266;2023-04-25T08:47:16;11.60;99.90
54082;DHT22;39986;50.770;0.266;2023-04-25T08:49:45;11.50;99.90
54082;DHT22;39986;50.770;0.266;2023-04-25T08:52:11;11.50;99.90
54082;DHT22;39986;50.770;0.266;2023-04-25T08:54:39;11.70;99.90
54082;DHT22;39986;50.770;0.266;2023-04-25T08:57:08;11.70;99.90
54082;DHT22;39986;50.770;0.266;2023-04-25T08:59:34;11.80;99.90
54082;DHT22;39986;50.770;0.266;2023-04-25T09:02:00;12.00;99.90
54082;DHT22;39986;50.770;0.266;2023-04-25T09:04:26;12.20;99.90
54082;DHT22;39986;50.770;0.266;2023-04-25T09:06:51;12.40;99.90
54082;DHT22;39986;50.770;0.266;2023-04-25T09:09:17;12.40;99.90
54082;DHT22;39986;50.770;0.266;2023-04-25T09:11:43;12.30;99.90
54082;DHT22;39986;50.770;0.266;2023-04-25T09:19:22;12.00;99.90
54082;DHT22;39986;50.770;0.266;2023-04-25T09:21:53;12.10;99.90
54082;DHT22;39986;50.770;0.266;2023-04-25T09:24:29;12.20;99.90
54082;DHT22;39986;50.770;0.266;2023-04-25T09:26:55;12.50;99.90
54082;DHT22;39986;50.770;0.266;2023-04-25T09:29:24;12.50;99.90
54082;DHT22;39986;50.770;0.266;2023-04-25T09:31:54;12.90;99.90
54082;DHT22;39986;50.770;0.266;2023-04-25T09:34:48;13.50;99.90
54082;DHT22;39986;50.770;0.266;2023-04-25T09:37:18;13.70;99.90
54082;DHT22;39986;50.770;0.266;2023-04-25T09:39:46;13.90;99.90
54082;DHT22;39986;50.770;0.266;2023-04-25T09:42:15;14.10;99.90
54082;DHT22;39986;50.770;0.266;2023-04-25T09:44:42;14.30;99.90
54082;DHT22;39986;50.770;0.266;2023-04-25T09:47:09;14.60;99.90
54082;DHT22;39986;50.770;0.266;2023-04-25T09:49:34;14.70;99.90
54082;DHT22;39986;50.770;0.266;2023-04-25T09:52:03;14.60;99.90
54082;DHT22;39986;50.770;0.266;2023-04-25T09:54:29;14.50;99.90
54082;DHT22;39986;50.770;0.266;2023-04-25T09:56:54;14.50;99.90
54082;DHT22;39986;50.770;0.266;2023-04-25T09:59:20;14.60;99.90
54082;DHT22;39986;50.770;0.266;2023-04-25T10:01:48;14.70;99.90
54082;DHT22;39986;50.770;0.266;2023-04-25T10:04:14;14.60;99.90
54082;DHT22;39986;50.770;0.266;2023-04-25T10:06:41;14.50;99.90
54082;DHT22;39986;50.770;0.266;2023-04-25T10:09:08;14.30;99.90
54082;DHT22;39986;50.770;0.266;2023-04-25T10:11:33;14.10;99.90
54082;DHT22;39986;50.770;0.266;2023-04-25T10:13:59;14.20;99.90
54082;DHT22;39986;50.770;0.266;2023-04-25T10:16:25;14.00;99.90
54082;DHT22;39986;50.770;0.266;2023-04-25T10:18:51;14.20;99.90
54082;DHT22;39986;50.770;0.266;2023-04-25T10:21:17;14.30;99.90
54082;DHT22;39986;50.770;0.266;2023-04-25T10:23:42;14.40;99.90
54082;DHT22;39986;50.770;0.266;2023-04-25T10:26:08;14.60;99.90
54082;DHT22;39986;50.770;0.266;2023-04-25T10:31:24;14.50;99.90
54082;DHT22;39986;50.770;0.266;2023-04-25T10:33:50;14.60;99.90
54082;DHT22;39986;50.770;0.266;2023-04-25T10:36:20;15.10;99.90
54082;DHT22;39986;50.770;0.266;2023-04-25T10:38:47;15.60;99.90
54082;DHT22;39986;50.770;0.266;2023-04-25T10:41:13;16.10;99.90
54082;DHT22;39986;50.770;0.266;2023-04-25T10:43:42;16.50;99.90
54082;DHT22;39986;50.770;0.266;2023-04-25T10:46:15;16.70;99.90
54082;DHT22;39986;50.770;0.266;2023-04-25T10:48:45;16.70;99.70
54082;DHT22;39986;50.770;0.266;2023-04-25T10:51:20;16.50;99.90
54082;DHT22;39986;50.770;0.266;2023-04-25T10:56:21;16.20;99.90
54082;DHT22;39986;50.770;0.266;2023-04-25T10:58:46;18.20;97.70
54082;DHT22;39986;50.770;0.266;2023-04-25T11:01:21;21.20;92.00
54082;DHT22;39986;50.770;0.266;2023-04-25T11:03:46;24.00;78.60
54082;DHT22;39986;50.770;0.266;2023-04-25T11:06:22;26.70;64.80
54082;DHT22;39986;50.770;0.266;2023-04-25T11:08:49;28.20;57.30
54082;DHT22;39986;50.770;0.266;2023-04-25T11:11:18;28.40;47.00
54082;DHT22;39986;50.770;0.266;2023-04-25T11:13:44;28.80;46.90
54082;DHT22;39986;50.770;0.266;2023-04-25T11:16:12;29.30;44.00
54082;DHT22;39986;50.770;0.266;2023-04-25T11:18:40;28.50;42.80
54082;DHT22;39986;50.770;0.266;2023-04-25T11:21:06;27.90;45.10
54082;DHT22;39986;50.770;0.266;2023-04-25T11:23:31;27.20;44.50
54082;DHT22;39986;50.770;0.266;2023-04-25T11:25:57;26.40;45.80
54082;DHT22;39986;50.770;0.266;2023-04-25T11:28:22;23.60;47.20
54082;DHT22;39986;50.770;0.266;2023-04-25T11:30:48;21.60;50.10
54082;DHT22;39986;50.770;0.266;2023-04-25T11:33:15;19.90;53.30
54082;DHT22;39986;50.770;0.266;2023-04-25T11:35:41;18.70;55.40
54082;DHT22;39986;50.770;0.266;2023-04-25T11:38:07;17.90;59.80
54082;DHT22;39986;50.770;0.266;2023-04-25T11:40:32;17.50;67.20
54082;DHT22;39986;50.770;0.266;2023-04-25T11:42:59;17.60;68.30
54082;DHT22;39986;50.770;0.266;2023-04-25T11:45:25;17.40;66.50
54082;DHT22;39986;50.770;0.266;2023-04-25T11:47:51;17.00;64.80
54082;DHT22;39986;50.770;0.266;2023-04-25T11:50:17;17.00;66.70
54082;DHT22;39986;50.770;0.266;2023-04-25T11:52:43;16.70;65.10
54082;DHT22;39986;50.770;0.266;2023-04-25T11:55:10;16.30;67.50
54082;DHT22;39986;50.770;0.266;2023-04-25T11:57:38;18.50;65.30
54082;DHT22;39986;50.770;0.266;2023-04-25T12:00:05;20.30;60.30
54082;DHT22;39986;50.770;0.266;2023-04-25T12:02:31;21.10;57.30
54082;DHT22;39986;50.770;0.266;2023-04-25T12:04:59;18.90;57.60
54082;DHT22;39986;50.770;0.266;2023-04-25T12:07:28;17.50;65.00
54082;DHT22;39986;50.770;0.266;2023-04-25T12:09:54;16.70;70.20
54082;DHT22;39986;50.770;0.266;2023-04-25T12:12:19;16.70;73.50
54082;DHT22;39986;50.770;0.266;2023-04-25T12:14:46;15.70;76.60
54082;DHT22;39986;50.770;0.266;2023-04-25T12:17:13;15.30;86.70
54082;DHT22;39986;50.770;0.266;2023-04-25T12:19:38;15.20;85.80
54082;DHT22;39986;50.770;0.266;2023-04-25T12:22:20;15.00;87.20
54082;DHT22;39986;50.770;0.266;2023-04-25T12:24:46;15.60;90.90
54082;DHT22;39986;50.770;0.266;2023-04-25T12:27:13;19.60;77.30
54082;DHT22;39986;50.770;0.266;2023-04-25T12:29:49;23.20;60.00
54082;DHT22;39986;50.770;0.266;2023-04-25T12:32:15;22.60;59.40
54082;DHT22;39986;50.770;0.266;2023-04-25T12:34:41;23.30;57.60
54082;DHT22;39986;50.770;0.266;2023-04-25T12:37:06;22.80;54.80
54082;DHT22;39986;50.770;0.266;2023-04-25T12:39:32;19.30;62.40
54082;DHT22;39986;50.770;0.266;2023-04-25T12:41:57;18.10;68.50
54082;DHT22;39986;50.770;0.266;2023-04-25T12:44:24;18.20;69.20
54082;DHT22;39986;50.770;0.266;2023-04-25T12:46:49;15.90;80.30
54082;DHT22;39986;50.770;0.266;2023-04-25T12:49:15;14.40;91.20
54082;DHT22;39986;50.770;0.266;2023-04-25T12:51:40;13.10;94.70
54082;DHT22;39986;50.770;0.266;2023-04-25T12:54:07;12.80;97.60
54082;DHT22;39986;50.770;0.266;2023-04-25T12:56:33;12.80;99.90
54082;DHT22;39986;50.770;0.266;2023-04-25T12:58:59;13.40;98.80
54082;DHT22;39986;50.770;0.266;2023-04-25T13:01:25;15.30;94.70
54082;DHT22;39986;50.770;0.266;2023-04-25T13:03:51;19.00;83.10
54082;DHT22;39986;50.770;0.266;2023-04-25T13:06:17;21.50;68.60
54082;DHT22;39986;50.770;0.266;2023-04-25T13:08:43;23.00;59.50
54082;DHT22;39986;50.770;0.266;2023-04-25T13:11:09;24.20;56.10
54082;DHT22;39986;50.770;0.266;2023-04-25T13:13:34;24.40;57.00
54082;DHT22;39986;50.770;0.266;2023-04-25T13:16:01;24.20;55.30
54082;DHT22;39986;50.770;0.266;2023-04-25T13:18:27;24.40;54.70
54082;DHT22;39986;50.770;0.266;2023-04-25T13:20:53;23.00;56.20
54082;DHT22;39986;50.770;0.266;2023-04-25T13:23:19;21.30;58.80
54082;DHT22;39986;50.770;0.266;2023-04-25T13:25:45;19.50;63.70
54082;DHT22;39986;50.770;0.266;2023-04-25T13:28:11;18.40;71.00
54082;DHT22;39986;50.770;0.266;2023-04-25T13:30:36;16.80;81.10
54082;DHT22;39986;50.770;0.266;2023-04-25T13:33:02;15.70;91.50
54082;DHT22;39986;50.770;0.266;2023-04-25T13:35:29;14.50;93.80
54082;DHT22;39986;50.770;0.266;2023-04-25T13:37:55;13.70;96.80
54082;DHT22;39986;50.770;0.266;2023-04-25T13:40:21;13.50;99.60
54082;DHT22;39986;50.770;0.266;2023-04-25T13:42:46;13.40;98.80
54082;DHT22;39986;50.770;0.266;2023-04-25T13:45:12;14.60;96.40
54082;DHT22;39986;50.770;0.266;2023-04-25T13:47:37;15.90;92.90
54082;DHT22;39986;50.770;0.266;2023-04-25T13:50:03;16.20;91.30
54082;DHT22;39986;50.770;0.266;2023-04-25T13:52:31;16.00;91.70
54082;DHT22;39986;50.770;0.266;2023-04-25T13:54:57;16.00;92.50
54082;DHT22;39986;50.770;0.266;2023-04-25T13:57:22;16.80;91.70
54082;DHT22;39986;50.770;0.266;2023-04-25T13:59:48;17.00;89.10
54082;DHT22;39986;50.770;0.266;2023-04-25T14:02:14;16.40;91.60
54082;DHT22;39986;50.770;0.266;2023-04-25T14:04:40;16.10;91.30
54082;DHT22;39986;50.770;0.266;2023-04-25T14:07:05;15.10;93.70
54082;DHT22;39986;50.770;0.266;2023-04-25T14:09:31;14.40;95.60
54082;DHT22;39986;50.770;0.266;2023-04-25T14:11:57;13.70;98.00
54082;DHT22;39986;50.770;0.266;2023-04-25T14:14:23;13.20;99.90
54082;DHT22;39986;50.770;0.266;2023-04-25T14:16:49;13.80;99.90
54082;DHT22;39986;50.770;0.266;2023-04-25T14:19:18;14.10;99.60
54082;DHT22;39986;50.770;0.266;2023-04-25T14:21:44;14.80;98.50
54082;DHT22;39986;50.770;0.266;2023-04-25T14:24:10;17.20;95.40
54082;DHT22;39986;50.770;0.266;2023-04-25T14:26:38;21.60;80.80
54082;DHT22;39986;50.770;0.266;2023-04-25T14:29:04;24.50;67.60
54082;DHT22;39986;50.770;0.266;2023-04-25T14:31:30;24.20;59.40
54082;DHT22;39986;50.770;0.266;2023-04-25T14:33:56;24.00;59.30
54082;DHT22;39986;50.770;0.266;2023-04-25T14:36:22;23.30;59.40
54082;DHT22;39986;50.770;0.266;2023-04-25T14:38:47;22.40;60.60
54082;DHT22;39986;50.770;0.266;2023-04-25T14:41:13;23.40;59.60
54082;DHT22;39986;50.770;0.266;2023-04-25T14:43:38;23.50;59.70
54082;DHT22;39986;50.770;0.266;2023-04-25T14:46:06;24.00;59.00
54082;DHT22;39986;50.770;0.266;2023-04-25T14:48:31;24.60;58.80
54082;DHT22;39986;50.770;0.266;2023-04-25T14:50:57;24.60;57.60
54082;DHT22;39986;50.770;0.266;2023-04-25T14:53:23;22.70;58.40
54082;DHT22;39986;50.770;0.266;2023-04-25T14:55:48;20.70;65.60
54082;DHT22;39986;50.770;0.266;2023-04-25T14:58:14;18.70;73.60
54082;DHT22;39986;50.770;0.266;2023-04-25T15:00:40;18.60;77.90
54082;DHT22;39986;50.770;0.266;2023-04-25T15:03:05;19.60;74.10
54082;DHT22;39986;50.770;0.266;2023-04-25T15:05:33;19.00;72.00
54082;DHT22;39986;50.770;0.266;2023-04-25T15:07:58;17.20;77.60
54082;DHT22;39986;50.770;0.266;2023-04-25T15:10:24;15.70;90.80
54082;DHT22;39986;50.770;0.266;2023-04-25T15:12:49;17.00;89.00
54082;DHT22;39986;50.770;0.266;2023-04-25T15:15:15;18.70;83.80
54082;DHT22;39986;50.770;0.266;2023-04-25T15:17:41;16.90;88.70
54082;DHT22;39986;50.770;0.266;2023-04-25T15:20:08;14.50;96.60
54082;DHT22;39986;50.770;0.266;2023-04-25T15:22:35;13.20;99.90
54082;DHT22;39986;50.770;0.266;2023-04-25T15:25:01;12.60;99.90
54082;DHT22;39986;50.770;0.266;2023-04-25T15:27:26;12.40;99.90
54082;DHT22;39986;50.770;0.266;2023-04-25T15:29:52;12.10;99.90
54082;DHT22;39986;50.770;0.266;2023-04-25T15:32:18;12.10;99.90
54082;DHT22;39986;50.770;0.266;2023-04-25T15:34:44;12.20;99.90
54082;DHT22;39986;50.770;0.266;2023-04-25T15:37:09;12.10;99.90
54082;DHT22;39986;50.770;0.266;2023-04-25T15:39:35;12.10;99.90
54082;DHT22;39986;50.770;0.266;2023-04-25T15:42:00;12.20;99.90